Notice: Undefined index: language in /home/u908952976/domains/airgaviota-va.com/public_html/vam/index.php on line 25
AirGaviota-VA

... VIRTUAL FLIGHT...OUR PASSION



 METAR AND TAF INFORMATION

Deprecated: The each() function is deprecated. This message will be suppressed on further calls in /home/u908952976/domains/airgaviota-va.com/public_html/vam/helpers/get_metar.php on line 20
METAR FOR LEVC
ADDS - METARS form results

(1726 UTC 27 January 2022)
Data provider http://aviationweather.gov/metar/data/
 
METAR text: LEVC 271700Z 14005KT CAVOK 13/02 Q1028 NOSIG
Conditions at: LEVC (VALENCIA (CIV/MI, ES) observed 1700 UTC 27 January 2022
Temperature: 13.0°C (55°F)
Dewpoint: 2.0°C (36°F) [RH = 47%]
Pressure (altimeter): 30.35 inches Hg (1028.0 mb)
Winds: from the SE (140 degrees) at 6 MPH (5 knots; 2.6 m/s)
Visibility: 6 or more miles (10+ km)
Ceiling: ceiling and visibility are OK
Clouds: unknown
Weather: no significant weather observed at this time

METAR text: LEVC 271630Z 14006KT CAVOK 15/01 Q1028 NOSIG
Conditions at: LEVC (VALENCIA (CIV/MI, ES) observed 1630 UTC 27 January 2022
Temperature: 15.0°C (59°F)
Dewpoint: 1.0°C (34°F) [RH = 39%]
Pressure (altimeter): 30.35 inches Hg (1028.0 mb)
Winds: from the SE (140 degrees) at 7 MPH (6 knots; 3.1 m/s)
Visibility: 6 or more miles (10+ km)
Ceiling: ceiling and visibility are OK
Clouds: unknown
Weather: no significant weather observed at this time

Forecast for: LEVC (VALENCIA (CIV/MI, ES)
Text: TAF LEVC 271100Z 2712/2812 09005KT 9999 FEW030 TX17/2714Z TN02/2806Z
Forecast period: 1200 UTC 27 January 2022 to 1200 UTC 28 January 2022
Forecast type: FROM: standard forecast or significant change
Winds: from the E (90 degrees) at 6 MPH (5 knots; 2.6 m/s)
Visibility: 6 or more miles (10+ km)
Ceiling: at least 12,000 feet AGL
Clouds: few clouds at 3000 feet AGL
Weather: no significant weather forecast for this period

 AIRPORT MAP

 RUNWAY INFORMATION
Runway 04 Runway length 5394 ft Runway width 148 ft
Runway elevation 205 ft Runway displaced threshold 0 ft Runway heading 38
Runway 22 Runway length 5394 ft Runway width 148 ft
Runway elevation 188 ft Runway displaced threshold 0 ft Runway heading 218
Runway 12 Runway length 8858 ft Runway width 148 ft
Runway elevation 225 ft Runway displaced threshold 0 ft Runway heading 116
Runway 30 Runway length 8858 ft Runway width 148 ft
Runway elevation 172 ft Runway displaced threshold 0 ft Runway heading 296

 AIRPORT FREQUENCIES
Type APP Name APP Frequency 120.1 MHZ
Type ATIS Name ATIS Frequency 121.075 MHZ
Type GND Name GND Frequency 121.7 MHZ
Type TWR Name TWR Frequency 118.55 MHZ

 AIRPORT NEAR NAVIGATION AIDS
Type NDB Name Valencia Frequency 400 KHZ
Type NDB Name Valencia Frequency 340 KHZ
Type NDB Name Sagunto Frequency 356 KHZ
Type VOR-DME Name Valencia Frequency 116100 KHZ